Birobidzan, Russia
Current Conditions -  °F | °C
As of 1:30 AM on Thursday 27 Nov 2014 (Local Time) from UHHH Reporting Station
Clear Clear  
Wind Chill: -2°   Ceiling: Unl
Heat Index:   Visibility: 6mi
Dew Point:   Wind: 4mph
Humidity: 85%   Direction: 320°NW
Pressure: 29.88"   Gusts: NA
Location:  48.8°N, 132.95°E
Report Text: UHHH 261730Z 32002MPS CAVOK M14/M16 Q1012 NOSIG RMK QFE753/100423090060
Loading
Personal Weather Stations






























Interactive Weather Map New forecast layout! Learn more

10-Day Weather Forecast

Advertisements
Track Severe Weather on mobile